createdAt,value
2022-08-22T00:00:23.104Z,101148.13
2022-08-22T00:01:33.612Z,101150.81
2022-08-22T00:02:45.442Z,101150.81
2022-08-22T00:02:53.998Z,101163.91
2022-08-22T00:03:10.964Z,101170.78
2022-08-22T00:03:16.023Z,101146.41
2022-08-22T00:04:21.283Z,101150.13
2022-08-22T00:05:31.674Z,101150.34
2022-08-22T00:06:44.672Z,101154.03
2022-08-22T00:07:56.293Z,101155.91
2022-08-22T00:09:18.268Z,101154.25
2022-08-22T00:10:25.559Z,101151.53
2022-08-22T00:11:37.569Z,101148.00
2022-08-22T00:12:46.041Z,101155.25
2022-08-22T00:14:01.997Z,101150.88
2022-08-22T00:15:31.546Z,101153.78
2022-08-22T00:16:39.347Z,101145.84
2022-08-22T00:17:49.351Z,101146.00
2022-08-22T00:18:56.452Z,101154.94
2022-08-22T00:20:06.100Z,101147.88
2022-08-22T00:21:13.288Z,101154.28
2022-08-22T00:22:20.468Z,101147.88
2022-08-22T00:23:31.566Z,101141.63
2022-08-22T00:24:40.259Z,101142.47
2022-08-22T00:25:52.364Z,101139.09
2022-08-22T00:26:58.979Z,101144.50
2022-08-22T00:28:07.015Z,101133.06
2022-08-22T00:29:13.714Z,101142.34
2022-08-22T00:30:18.870Z,101140.66
2022-08-22T00:31:27.112Z,101144.38
2022-08-22T00:32:39.536Z,101143.56
2022-08-22T00:33:52.991Z,101142.88
2022-08-22T00:34:59.997Z,101145.97
2022-08-22T00:36:14.860Z,101146.16
2022-08-22T00:37:24.436Z,101145.31
2022-08-22T00:38:30.946Z,101143.63
2022-08-22T00:39:40.112Z,101150.03
2022-08-22T00:40:56.177Z,101151.72
2022-08-22T00:42:31.885Z,101149.88
2022-08-22T00:44:15.772Z,101149.88
2022-08-22T00:45:48.000Z,101148.16
2022-08-22T00:47:10.061Z,101153.78
2022-08-22T00:48:35.414Z,101159.16
2022-08-22T00:50:01.585Z,101148.53
2022-08-22T00:51:31.334Z,101153.09
2022-08-22T00:52:52.446Z,101150.41
2022-08-22T00:54:06.843Z,101144.34
2022-08-22T00:55:37.397Z,101150.94
2022-08-22T00:57:07.569Z,101152.81
2022-08-22T00:58:36.811Z,101151.31
2022-08-22T01:00:01.792Z,101143.38
2022-08-22T01:01:12.646Z,101146.44
2022-08-22T01:02:31.909Z,101145.81
2022-08-22T01:04:04.731Z,101146.81
2022-08-22T01:05:32.660Z,101147.19
2022-08-22T01:06:46.560Z,101145.84
2022-08-22T01:08:08.928Z,101145.22
2022-08-22T01:09:24.276Z,101146.22
2022-08-22T01:10:39.531Z,101146.22
2022-08-22T01:12:07.912Z,101147.22
2022-08-22T01:13:24.085Z,101143.88
2022-08-22T01:14:50.143Z,101141.34
2022-08-22T01:16:07.174Z,101138.84
2022-08-22T01:17:27.842Z,101144.41
2022-08-22T01:18:56.556Z,101144.59
2022-08-22T01:20:56.969Z,101146.44
2022-08-22T01:22:30.844Z,101139.56
2022-08-22T01:24:02.425Z,101138.03
2022-08-22T01:25:39.367Z,101143.78
2022-08-22T01:27:06.145Z,101141.28
2022-08-22T01:28:40.811Z,101137.91
2022-08-22T01:30:16.336Z,101139.13
2022-08-22T01:32:01.864Z,101134.94
2022-08-22T01:33:48.755Z,101142.38
2022-08-22T01:35:10.539Z,101137.34
2022-08-22T01:36:40.349Z,101136.63
2022-08-22T01:37:59.713Z,101131.41
2022-08-22T01:39:50.281Z,101135.97
2022-08-22T01:41:17.103Z,101136.13
2022-08-22T01:42:45.176Z,101135.47
2022-08-22T01:44:06.132Z,101139.19
2022-08-22T01:45:42.843Z,101144.56
2022-08-22T01:46:53.855Z,101133.31
2022-08-22T01:47:59.973Z,101134.34
2022-08-22T01:49:10.249Z,101135.34
2022-08-22T01:50:26.218Z,101130.97
2022-08-22T01:51:36.539Z,101133.84
2022-08-22T01:52:45.115Z,101131.31
2022-08-22T01:53:58.217Z,101133.16
2022-08-22T01:55:06.676Z,101125.28
2022-08-22T01:56:13.293Z,101134.38
2022-08-22T01:57:16.652Z,101136.22
2022-08-22T01:58:22.991Z,101132.69
2022-08-22T01:59:34.327Z,101137.22
2022-08-22T02:01:00.086Z,101131.03
2022-08-22T02:02:12.799Z,101131.84
2022-08-22T02:03:27.374Z,101126.66
2022-08-22T02:04:40.000Z,101132.19
2022-08-22T02:05:53.639Z,101131.38
2022-08-22T02:07:02.391Z,101125.31
2022-08-22T02:08:19.984Z,101133.41
2022-08-22T02:09:34.419Z,101130.69
2022-08-22T02:10:48.537Z,101128.19
2022-08-22T02:11:57.511Z,101128.19
2022-08-22T02:13:08.806Z,101131.06
2022-08-22T02:14:23.234Z,101130.22
2022-08-22T02:15:35.629Z,101125.84
2022-08-22T02:16:40.755Z,101127.50
2022-08-22T02:18:18.013Z,101132.06
2022-08-22T02:19:30.350Z,101125.00
2022-08-22T02:20:44.424Z,101128.72
2022-08-22T02:21:53.272Z,101135.09
2022-08-22T02:23:01.226Z,101137.16
2022-08-22T02:24:14.677Z,101128.22
2022-08-22T02:25:25.549Z,101129.22
2022-08-22T02:26:40.658Z,101128.56
2022-08-22T02:27:55.444Z,101121.34
2022-08-22T02:29:01.690Z,101125.03
2022-08-22T02:30:09.019Z,101125.22
2022-08-22T02:31:16.609Z,101122.69
2022-08-22T02:32:26.202Z,101128.28
2022-08-22T02:33:34.925Z,101127.44
2022-08-22T02:34:43.338Z,101129.28
2022-08-22T02:35:52.939Z,101129.44
2022-08-22T02:37:07.681Z,101125.09
2022-08-22T02:38:22.924Z,101125.94
2022-08-22T02:39:33.173Z,101128.78
2022-08-22T02:40:40.028Z,101129.78
2022-08-22T02:41:52.180Z,101133.53
2022-08-22T02:43:03.287Z,101128.78
2022-08-22T02:44:17.016Z,101127.09
2022-08-22T02:45:31.027Z,101123.75
2022-08-22T02:46:46.947Z,101128.13
2022-08-22T02:47:56.764Z,101119.22
2022-08-22T02:49:09.863Z,101122.06
2022-08-22T02:50:19.590Z,101113.31
2022-08-22T02:51:35.007Z,101121.41
2022-08-22T02:52:53.197Z,101117.03
2022-08-22T02:54:04.031Z,101121.41
2022-08-22T02:55:12.324Z,101125.78
2022-08-22T02:56:20.877Z,101120.41
2022-08-22T02:57:28.516Z,101123.25
2022-08-22T02:58:40.288Z,101114.34
2022-08-22T03:00:06.624Z,101118.72
2022-08-22T03:01:40.757Z,101117.72
2022-08-22T03:03:02.216Z,101109.78
2022-08-22T03:04:24.067Z,101111.63
2022-08-22T03:05:29.042Z,101110.78
2022-08-22T03:06:39.301Z,101112.00
2022-08-22T03:07:48.386Z,101111.34
2022-08-22T03:09:07.437Z,101109.66
2022-08-22T03:10:18.125Z,101105.25
2022-08-22T03:11:27.615Z,101103.59
2022-08-22T03:12:34.407Z,101104.41
2022-08-22T03:13:56.916Z,101104.63
2022-08-22T03:15:06.392Z,101109.00
2022-08-22T03:16:15.938Z,101103.75
2022-08-22T03:17:22.668Z,101108.16
2022-08-22T03:18:28.557Z,101101.91
2022-08-22T03:19:43.913Z,101101.91
2022-08-22T03:20:51.243Z,101103.59
2022-08-22T03:21:59.863Z,101097.38
2022-08-22T03:23:10.517Z,101101.72
2022-08-22T03:24:17.405Z,101098.22
2022-08-22T03:25:31.441Z,101096.34
2022-08-22T03:26:41.823Z,101100.91
2022-08-22T03:27:51.513Z,101094.50
2022-08-22T03:29:02.043Z,101096.34
2022-08-22T03:30:07.783Z,101099.88
2022-08-22T03:31:17.609Z,101101.56
2022-08-22T03:32:21.876Z,101098.03
2022-08-22T03:33:27.329Z,101095.34
2022-08-22T03:34:28.912Z,101096.19
2022-08-22T03:35:37.358Z,101105.09
2022-08-22T03:36:40.910Z,101103.41
2022-08-22T03:37:44.223Z,101101.72
2022-08-22T03:39:03.496Z,101093.84
2022-08-22T03:40:27.832Z,101094.50
2022-08-22T03:42:03.840Z,101090.97
2022-08-22T03:43:21.289Z,101089.31
2022-08-22T03:44:50.513Z,101086.75
2022-08-22T03:46:22.602Z,101085.09
2022-08-22T03:47:51.649Z,101089.81
2022-08-22T03:49:11.320Z,101086.28
2022-08-22T03:50:43.796Z,101092.69
2022-08-22T03:52:04.749Z,101082.09
2022-08-22T03:53:54.467Z,101086.81
2022-08-22T03:55:21.964Z,101085.13
2022-08-22T03:57:06.274Z,101076.41
2022-08-22T03:58:30.601Z,101072.16
2022-08-22T04:00:05.145Z,101075.06
2022-08-22T04:01:25.383Z,101078.75
2022-08-22T04:03:09.950Z,101078.75
2022-08-22T04:04:49.392Z,101081.44
2022-08-22T04:06:35.255Z,101080.75
2022-08-22T04:07:54.738Z,101079.06
2022-08-22T04:09:21.665Z,101075.53
2022-08-22T04:10:52.587Z,101088.16
2022-08-22T04:12:23.832Z,101091.88
2022-08-22T04:13:43.830Z,101084.81
2022-08-22T04:15:14.015Z,101082.09
2022-08-22T04:16:46.733Z,101088.16
2022-08-22T04:18:06.783Z,101087.34
2022-08-22T04:19:42.123Z,101080.75
2022-08-22T04:21:30.126Z,101086.13
2022-08-22T04:22:54.600Z,101084.44
2022-08-22T04:24:17.069Z,101085.28
2022-08-22T04:25:25.450Z,101087.16
2022-08-22T04:26:37.332Z,101086.31
2022-08-22T04:27:44.605Z,101088.16
2022-08-22T04:28:50.106Z,101086.31
2022-08-22T04:29:59.804Z,101095.22
2022-08-22T04:31:07.416Z,101090.50
2022-08-22T04:32:16.323Z,101087.78
2022-08-22T04:33:23.546Z,101089.53
2022-08-22T04:34:32.016Z,101089.53
2022-08-22T04:35:38.620Z,101090.38
2022-08-22T04:36:45.958Z,101092.22
2022-08-22T04:37:52.107Z,101091.22
2022-08-22T04:39:00.880Z,101090.22
2022-08-22T04:40:11.274Z,101084.81
2022-08-22T04:41:24.293Z,101082.13
2022-08-22T04:42:33.610Z,101081.28
2022-08-22T04:43:39.085Z,101093.72
2022-08-22T04:44:48.179Z,101087.50
2022-08-22T04:45:59.264Z,101087.50
2022-08-22T04:47:09.491Z,101091.88
2022-08-22T04:48:21.298Z,101088.31
2022-08-22T04:49:32.433Z,101094.56
2022-08-22T04:50:43.307Z,101087.50
2022-08-22T04:51:52.152Z,101089.16
2022-08-22T04:53:07.855Z,101083.97
2022-08-22T04:54:27.047Z,101089.34
2022-08-22T04:55:34.093Z,101083.78
2022-08-22T04:56:43.860Z,101084.63
2022-08-22T04:57:57.066Z,101087.16
2022-08-22T04:59:04.299Z,101089.84
2022-08-22T05:00:10.191Z,101085.13
2022-08-22T05:01:19.624Z,101092.34
2022-08-22T05:02:23.792Z,101089.50
2022-08-22T05:03:29.842Z,101094.69
2022-08-22T05:04:35.652Z,101100.09
2022-08-22T05:05:42.573Z,101102.63
2022-08-22T05:06:49.191Z,101099.94
2022-08-22T05:07:55.200Z,101100.78
2022-08-22T05:09:02.876Z,101104.28
2022-08-22T05:10:12.150Z,101105.13
2022-08-22T05:11:18.217Z,101110.50
2022-08-22T05:12:29.154Z,101102.44
2022-08-22T05:13:41.208Z,101104.28
2022-08-22T05:14:47.931Z,101106.97
2022-08-22T05:15:52.928Z,101104.28
2022-08-22T05:16:58.784Z,101105.31
2022-08-22T05:18:06.421Z,101109.66
2022-08-22T05:19:16.450Z,101104.28
2022-08-22T05:20:23.160Z,101110.34
2022-08-22T05:21:29.978Z,101106.66
2022-08-22T05:22:41.084Z,101105.63
2022-08-22T05:23:48.183Z,101103.59
2022-08-22T05:24:56.111Z,101106.09
2022-08-22T05:26:03.096Z,101102.41
2022-08-22T05:27:12.174Z,101106.78
2022-08-22T05:28:20.815Z,101106.78
2022-08-22T05:29:27.533Z,101105.59
2022-08-22T05:30:31.290Z,101106.25
2022-08-22T05:31:42.664Z,101108.94
2022-08-22T05:32:51.980Z,101104.41
2022-08-22T05:33:59.843Z,101105.41
2022-08-22T05:35:11.138Z,101115.34
2022-08-22T05:36:18.417Z,101113.47
2022-08-22T05:37:25.621Z,101111.63
2022-08-22T05:38:31.456Z,101111.63
2022-08-22T05:39:34.840Z,101108.09
2022-08-22T05:40:37.881Z,101115.34
2022-08-22T05:41:42.288Z,101115.34
2022-08-22T05:42:44.312Z,101120.72
2022-08-22T05:43:50.492Z,101119.72
2022-08-22T05:44:55.363Z,101113.47
2022-08-22T05:45:59.997Z,101119.72
2022-08-22T05:47:05.155Z,101121.56
2022-08-22T05:48:12.864Z,101119.56
2022-08-22T05:49:20.543Z,101116.69
2022-08-22T05:50:34.619Z,101122.06
2022-08-22T05:51:44.730Z,101125.59
2022-08-22T05:53:06.180Z,101123.75
2022-08-22T05:54:14.120Z,101121.72
2022-08-22T05:55:26.075Z,101122.41
2022-08-22T05:56:36.899Z,101124.38
2022-08-22T05:57:43.734Z,101127.03
2022-08-22T05:58:53.488Z,101122.63
2022-08-22T06:00:03.948Z,101120.53
2022-08-22T06:01:20.540Z,101123.84
2022-08-22T06:02:34.048Z,101122.50
2022-08-22T06:03:39.057Z,101118.47
2022-08-22T06:04:51.686Z,101120.13
2022-08-22T06:05:58.667Z,101118.75
2022-08-22T06:07:06.241Z,101119.25
2022-08-22T06:08:14.172Z,101124.75
2022-08-22T06:09:23.139Z,101124.03
2022-08-22T06:10:29.596Z,101128.34
2022-08-22T06:11:40.509Z,101120.56
2022-08-22T06:12:50.818Z,101129.13
2022-08-22T06:13:59.043Z,101132.31
2022-08-22T06:15:11.697Z,101136.50
2022-08-22T06:16:20.964Z,101129.53
2022-08-22T06:17:29.080Z,101142.66
2022-08-22T06:18:33.615Z,101131.81
2022-08-22T06:19:39.584Z,101139.19
2022-08-22T06:20:46.610Z,101136.22
2022-08-22T06:21:51.131Z,101139.72
2022-08-22T06:22:59.214Z,101144.38
2022-08-22T06:24:03.245Z,101148.75
2022-08-22T06:25:12.732Z,101145.03
2022-08-22T06:26:20.203Z,101141.88
2022-08-22T06:27:27.460Z,101143.91
2022-08-22T06:28:37.866Z,101143.91
2022-08-22T06:30:03.093Z,101145.09
2022-08-22T06:31:13.338Z,101140.56
2022-08-22T06:32:30.654Z,101141.38
2022-08-22T06:33:45.941Z,101139.72
2022-08-22T06:34:51.095Z,101134.31
2022-08-22T06:36:15.977Z,101136.25
2022-08-22T06:37:32.021Z,101137.59
2022-08-22T06:38:53.346Z,101139.91
2022-08-22T06:39:57.671Z,101142.53
2022-08-22T06:41:03.695Z,101137.03
2022-08-22T06:42:14.494Z,101145.25
2022-08-22T06:43:20.746Z,101139.03
2022-08-22T06:44:31.651Z,101135.66
2022-08-22T06:45:33.637Z,101141.44
2022-08-22T06:46:39.223Z,101140.59
2022-08-22T06:47:50.128Z,101143.50
2022-08-22T06:48:55.808Z,101145.34
2022-08-22T06:50:03.731Z,101144.50
2022-08-22T06:51:08.243Z,101142.16
2022-08-22T06:52:16.091Z,101134.25
2022-08-22T06:53:21.727Z,101133.44
2022-08-22T06:54:31.439Z,101137.63
2022-08-22T06:55:40.110Z,101136.41
2022-08-22T06:56:45.288Z,101137.63
2022-08-22T06:57:53.754Z,101132.22
2022-08-22T06:58:59.548Z,101139.66
2022-08-22T07:00:06.574Z,101142.53
2022-08-22T07:01:15.294Z,101145.41
2022-08-22T07:02:27.292Z,101133.97
2022-08-22T07:03:33.220Z,101142.91
2022-08-22T07:04:36.414Z,101145.25
2022-08-22T07:05:41.281Z,101141.34
2022-08-22T07:06:49.126Z,101140.13
2022-08-22T07:07:54.343Z,101133.97
2022-08-22T07:08:58.345Z,101146.94
2022-08-22T07:10:01.950Z,101134.53
2022-08-22T07:11:11.430Z,101142.09
2022-08-22T07:12:18.230Z,101149.44
2022-08-22T07:13:21.273Z,101144.34
2022-08-22T07:14:28.531Z,101142.06
2022-08-22T07:15:36.550Z,101143.38
2022-08-22T07:16:43.288Z,101133.53
2022-08-22T07:17:53.375Z,101138.00
2022-08-22T07:18:55.021Z,101141.44
2022-08-22T07:20:01.303Z,101130.53
2022-08-22T07:21:07.209Z,101134.50
2022-08-22T07:22:14.159Z,101140.56
2022-08-22T07:23:31.532Z,101136.00
2022-08-22T07:24:33.305Z,101133.75
2022-08-22T07:25:48.747Z,101138.41
2022-08-22T07:27:11.802Z,101133.25
2022-08-22T07:28:36.651Z,101127.66
2022-08-22T07:29:48.605Z,101127.44
2022-08-22T07:30:56.423Z,101140.59
2022-08-22T07:32:09.594Z,101129.78
2022-08-22T07:33:27.306Z,101132.09
2022-08-22T07:34:47.302Z,101131.53
2022-08-22T07:35:59.963Z,101135.72
2022-08-22T07:37:05.592Z,101136.16
2022-08-22T07:38:20.012Z,101132.88
2022-08-22T07:39:28.628Z,101138.56
2022-08-22T07:40:35.356Z,101133.22
2022-08-22T07:41:50.937Z,101142.47
2022-08-22T07:43:00.975Z,101142.72
2022-08-22T07:44:12.741Z,101136.91
2022-08-22T07:45:20.632Z,101135.88
2022-08-22T07:46:30.727Z,101146.09
2022-08-22T07:47:49.722Z,101147.78
2022-08-22T07:49:09.022Z,101141.13
2022-08-22T07:50:17.091Z,101141.81
2022-08-22T07:51:26.948Z,101149.53
2022-08-22T07:52:36.660Z,101151.56
2022-08-22T07:53:43.501Z,101151.56
2022-08-22T07:54:51.271Z,101151.19
2022-08-22T07:55:55.240Z,101151.84
2022-08-22T07:57:02.427Z,101145.00
2022-08-22T07:58:07.980Z,101152.94
2022-08-22T07:59:14.355Z,101157.50
2022-08-22T08:00:20.403Z,101146.88
2022-08-22T08:01:25.379Z,101143.34
2022-08-22T08:02:28.502Z,101148.75
2022-08-22T08:03:32.467Z,101147.91
2022-08-22T08:04:40.230Z,101145.00
2022-08-22T08:05:45.613Z,101144.63
2022-08-22T08:06:48.684Z,101133.84
2022-08-22T08:07:55.956Z,101131.75
2022-08-22T08:08:58.655Z,101133.91
2022-08-22T08:10:09.968Z,101132.44
2022-08-22T08:11:17.038Z,101127.47
2022-08-22T08:12:22.800Z,101133.38
2022-08-22T08:13:32.383Z,101137.75
2022-08-22T08:14:37.239Z,101134.03
2022-08-22T08:15:45.327Z,101133.63
2022-08-22T08:16:57.395Z,101132.56
2022-08-22T08:18:03.822Z,101135.09
2022-08-22T08:19:10.373Z,101127.81
2022-08-22T08:20:19.391Z,101126.13
2022-08-22T08:21:28.145Z,101121.09
2022-08-22T08:22:31.970Z,101125.69
2022-08-22T08:23:39.584Z,101124.44
2022-08-22T08:24:44.861Z,101124.03
2022-08-22T08:25:54.404Z,101119.28
2022-08-22T08:27:18.831Z,101119.06
2022-08-22T08:28:38.005Z,101124.28
2022-08-22T08:29:42.420Z,101119.31
2022-08-22T08:30:47.507Z,101116.22
2022-08-22T08:31:49.325Z,101115.81
2022-08-22T08:33:24.284Z,101102.69
2022-08-22T08:34:24.356Z,101110.44
2022-08-22T08:35:29.507Z,101108.78
2022-08-22T08:36:38.481Z,101108.81
2022-08-22T08:37:46.618Z,101104.47
2022-08-22T08:38:56.073Z,101103.00
2022-08-22T08:40:01.581Z,101105.75
2022-08-22T08:41:27.347Z,101106.00
2022-08-22T08:43:10.766Z,101101.84
2022-08-22T08:44:29.416Z,101103.97
2022-08-22T08:45:51.807Z,101098.56
2022-08-22T08:47:25.561Z,101099.84
2022-08-22T08:48:48.101Z,101102.13
2022-08-22T08:50:18.538Z,101100.03
2022-08-22T08:51:43.781Z,101089.00
2022-08-22T08:52:59.407Z,101092.75
2022-08-22T08:54:16.103Z,101095.72
2022-08-22T08:55:27.367Z,101089.47
2022-08-22T08:56:35.752Z,101085.31
2022-08-22T08:57:52.751Z,101083.41
2022-08-22T08:59:03.954Z,101083.81
2022-08-22T09:00:15.935Z,101081.75
2022-08-22T09:01:39.975Z,101081.94
2022-08-22T09:02:52.316Z,101083.22
2022-08-22T09:04:21.774Z,101086.34
2022-08-22T09:05:55.608Z,101081.53
2022-08-22T09:07:35.843Z,101073.22
2022-08-22T09:08:55.950Z,101078.63
2022-08-22T09:10:14.489Z,101076.13
2022-08-22T09:11:51.682Z,101080.69
2022-08-22T09:13:13.724Z,101074.25
2022-08-22T09:14:27.602Z,101078.22
2022-08-22T09:15:55.063Z,101076.16
2022-08-22T09:17:40.870Z,101068.00
2022-08-22T09:18:58.129Z,101075.72
2022-08-22T09:20:26.107Z,101069.28
2022-08-22T09:22:14.633Z,101067.81
2022-08-22T09:23:48.351Z,101065.72
2022-08-22T09:25:17.694Z,101071.16
2022-08-22T09:26:30.757Z,101066.56
2022-08-22T09:27:36.130Z,101064.06
2022-08-22T09:28:42.577Z,101065.09
2022-08-22T09:29:57.221Z,101066.78
2022-08-22T09:31:47.519Z,101059.66
2022-08-22T09:33:02.772Z,101062.38
2022-08-22T09:34:12.531Z,101058.22
2022-08-22T09:35:27.610Z,101057.78
2022-08-22T09:36:41.884Z,101053.59
2022-08-22T09:37:58.812Z,101055.69
2022-08-22T09:39:14.851Z,101057.78
2022-08-22T09:41:39.932Z,101049.81
2022-08-22T09:42:52.934Z,101053.78
2022-08-22T09:44:09.752Z,101051.69
2022-08-22T09:45:37.398Z,101050.66
2022-08-22T09:46:52.969Z,101052.75
2022-08-22T09:48:07.232Z,101053.34
2022-08-22T09:49:16.566Z,101046.66
2022-08-22T09:50:24.605Z,101045.59
2022-08-22T09:51:39.548Z,101040.16
2022-08-22T09:53:01.168Z,101044.75
2022-08-22T09:54:13.751Z,101039.50
2022-08-22T09:55:38.052Z,101040.97
2022-08-22T09:56:52.380Z,101041.16
2022-08-22T09:58:04.438Z,101044.09
2022-08-22T09:59:12.127Z,101041.78
2022-08-22T10:00:22.648Z,101052.22
2022-08-22T10:01:32.767Z,101050.94
2022-08-22T10:02:44.781Z,101033.34
2022-08-22T10:04:28.867Z,101036.69
2022-08-22T10:05:44.372Z,101039.59
2022-08-22T10:06:56.732Z,101041.44
2022-08-22T10:08:27.131Z,101045.81
2022-08-22T10:09:40.685Z,101046.63
2022-08-22T10:11:08.549Z,101042.22
2022-08-22T10:12:19.110Z,101040.31
2022-08-22T10:13:43.289Z,101049.91
2022-08-22T10:15:03.489Z,101043.63
2022-08-22T10:16:25.112Z,101041.94
2022-08-22T10:17:33.008Z,101041.50
2022-08-22T10:18:43.974Z,101040.25
2022-08-22T10:20:03.302Z,101041.47
2022-08-22T10:21:12.144Z,101042.94
2022-08-22T10:22:24.053Z,101038.09
2022-08-22T10:23:39.406Z,101041.06
2022-08-22T10:24:57.042Z,101043.97
2022-08-22T10:26:22.966Z,101042.75
2022-08-22T10:27:43.378Z,101039.41
2022-08-22T10:28:54.780Z,101034.59
2022-08-22T10:30:06.616Z,101035.63
2022-08-22T10:31:23.768Z,101029.28
2022-08-22T10:32:35.052Z,101029.69
2022-08-22T10:33:44.881Z,101035.09
2022-08-22T10:34:56.791Z,101028.94
2022-08-22T10:36:07.786Z,101033.34
2022-08-22T10:37:26.336Z,101033.94
2022-08-22T10:38:31.637Z,101033.06
2022-08-22T10:39:43.971Z,101030.53
2022-08-22T10:41:03.571Z,101022.75
2022-08-22T10:42:27.861Z,101030.69
2022-08-22T10:43:40.898Z,101033.22
2022-08-22T10:44:54.578Z,101018.56
2022-08-22T10:46:03.669Z,101020.59
2022-08-22T10:47:12.124Z,101023.50
2022-08-22T10:48:33.499Z,101013.81
2022-08-22T10:49:43.136Z,101033.66
2022-08-22T10:50:48.898Z,101024.56
2022-08-22T10:51:57.322Z,101025.81
2022-08-22T10:53:19.168Z,101028.69
2022-08-22T10:54:43.027Z,101014.44
2022-08-22T10:55:48.892Z,101026.19
2022-08-22T10:57:00.485Z,101022.63
2022-08-22T10:58:09.612Z,101014.44
2022-08-22T10:59:26.941Z,101023.25
2022-08-22T11:00:49.994Z,101016.50
2022-08-22T11:02:08.532Z,101015.22
2022-08-22T11:03:21.295Z,101014.75
2022-08-22T11:04:43.741Z,101024.16
2022-08-22T11:05:50.050Z,101014.47
2022-08-22T11:07:04.158Z,101019.47
2022-08-22T11:08:25.728Z,101009.16
2022-08-22T11:09:39.263Z,101013.75
2022-08-22T11:10:57.403Z,101011.63
2022-08-22T11:12:10.879Z,101001.13
2022-08-22T11:13:19.507Z,101001.50
2022-08-22T11:14:48.644Z,101004.81
2022-08-22T11:15:59.940Z,101002.69
2022-08-22T11:17:30.907Z,101003.75
2022-08-22T11:19:15.397Z,100997.09
2022-08-22T11:20:23.892Z,100999.38
2022-08-22T11:21:33.032Z,100998.44
2022-08-22T11:22:47.557Z,101003.44
2022-08-22T11:24:17.190Z,101005.72
2022-08-22T11:25:45.352Z,101004.66
2022-08-22T11:27:01.292Z,101001.25
2022-08-22T11:28:28.864Z,101001.59
2022-08-22T11:29:41.156Z,100996.38
2022-08-22T11:30:58.348Z,100999.94
2022-08-22T11:32:12.486Z,100999.50
2022-08-22T11:33:46.229Z,100993.56
2022-08-22T11:35:00.001Z,100993.69
2022-08-22T11:36:26.140Z,101001.19
2022-08-22T11:37:53.786Z,100998.22
2022-08-22T11:39:10.009Z,100995.50
2022-08-22T11:40:37.944Z,100987.31
2022-08-22T11:41:44.348Z,100987.09
2022-08-22T11:43:16.296Z,100995.06
2022-08-22T11:44:28.570Z,100981.84
2022-08-22T11:45:40.030Z,100990.50
2022-08-22T11:46:47.216Z,100991.81
2022-08-22T11:48:00.434Z,100987.41
2022-08-22T11:49:20.214Z,100994.16
2022-08-22T11:50:37.021Z,100987.53
2022-08-22T11:52:03.541Z,100997.81
2022-08-22T11:53:24.207Z,100993.19
2022-08-22T11:54:36.035Z,100986.44
2022-08-22T11:55:43.183Z,100993.31
2022-08-22T11:56:48.945Z,100982.78
2022-08-22T11:57:56.817Z,100983.41
2022-08-22T11:59:03.756Z,100986.72
2022-08-22T12:00:28.977Z,100985.06
2022-08-22T12:01:40.571Z,100980.22
2022-08-22T12:02:56.890Z,100981.66
2022-08-22T12:04:09.900Z,100974.03
2022-08-22T12:05:24.696Z,100979.88
2022-08-22T12:06:46.849Z,100974.81
2022-08-22T12:07:54.929Z,100973.31
2022-08-22T12:09:17.952Z,100981.03
2022-08-22T12:10:26.454Z,100975.94
2022-08-22T12:11:41.896Z,100982.22
2022-08-22T12:13:01.239Z,100981.38
2022-08-22T12:14:06.921Z,100972.63
2022-08-22T12:15:21.221Z,100974.50
2022-08-22T12:16:33.528Z,100976.88
2022-08-22T12:18:21.699Z,100973.53
2022-08-22T12:19:33.592Z,100971.03
2022-08-22T12:20:53.335Z,100964.75
2022-08-22T12:22:32.540Z,100968.53
2022-08-22T12:23:54.015Z,100968.13
2022-08-22T12:25:10.230Z,100964.34
2022-08-22T12:26:22.816Z,100974.41
2022-08-22T12:27:48.178Z,100966.47
2022-08-22T12:29:05.414Z,100968.84
2022-08-22T12:30:25.182Z,100961.97
2022-08-22T12:31:38.184Z,100960.88
2022-08-22T12:33:13.146Z,100969.91
2022-08-22T12:34:22.245Z,100956.63
2022-08-22T12:35:41.128Z,100958.88
2022-08-22T12:37:00.490Z,100962.00
2022-08-22T12:38:26.695Z,100960.34
2022-08-22T12:39:56.719Z,100959.28
2022-08-22T12:41:28.105Z,100960.97
2022-08-22T12:43:03.607Z,100949.56
2022-08-22T12:44:30.919Z,100962.75
2022-08-22T12:45:46.609Z,100956.59
2022-08-22T12:47:09.221Z,100952.31
2022-08-22T12:48:28.789Z,100959.34
2022-08-22T12:49:49.981Z,100952.13
2022-08-22T12:50:58.112Z,100954.75
2022-08-22T12:52:19.493Z,100954.88
2022-08-22T12:53:56.722Z,100945.16
2022-08-22T12:55:25.012Z,100947.63
2022-08-22T12:56:38.723Z,100951.78
2022-08-22T12:57:57.779Z,100950.72
2022-08-22T12:59:20.576Z,100948.00
2022-08-22T13:00:32.089Z,100948.00
2022-08-22T13:01:40.187Z,100950.16
2022-08-22T13:02:46.589Z,100944.69
2022-08-22T13:03:54.998Z,100940.03
2022-08-22T13:05:03.315Z,100949.06
2022-08-22T13:06:31.202Z,100938.75
2022-08-22T13:07:36.778Z,100951.56
2022-08-22T13:08:44.063Z,100941.47
2022-08-22T13:09:49.990Z,100945.84
2022-08-22T13:11:01.145Z,100944.78
2022-08-22T13:12:19.852Z,100941.47
2022-08-22T13:13:31.394Z,100941.69
2022-08-22T13:14:39.483Z,100934.94
2022-08-22T13:15:47.233Z,100930.66
2022-08-22T13:16:59.767Z,100932.34
2022-08-22T13:18:28.792Z,100935.69
2022-08-22T13:19:34.501Z,100932.94
2022-08-22T13:20:41.422Z,100940.66
2022-08-22T13:21:50.619Z,100935.56
2022-08-22T13:22:54.454Z,100930.47
2022-08-22T13:24:03.570Z,100931.28
2022-08-22T13:25:09.549Z,100938.44
2022-08-22T13:26:24.582Z,100929.41
2022-08-22T13:27:51.194Z,100932.13
2022-08-22T13:29:24.180Z,100935.94
2022-08-22T13:30:27.343Z,100934.25
2022-08-22T13:31:31.424Z,100935.94
2022-08-22T13:32:40.043Z,100939.72
2022-08-22T13:33:49.194Z,100937.25
2022-08-22T13:34:55.686Z,100939.13
2022-08-22T13:36:03.331Z,100930.94
2022-08-22T13:37:06.675Z,100938.06
2022-08-22T13:38:18.136Z,100931.28
2022-08-22T13:39:33.969Z,100932.97
2022-08-22T13:40:39.241Z,100930.25
2022-08-22T13:41:49.480Z,100925.34
2022-08-22T13:43:02.778Z,100919.06
2022-08-22T13:44:17.195Z,100932.72
2022-08-22T13:45:25.041Z,100920.94
2022-08-22T13:46:30.096Z,100921.22
2022-08-22T13:47:39.570Z,100919.06
2022-08-22T13:48:49.489Z,100922.03
2022-08-22T13:49:55.473Z,100927.50
2022-08-22T13:51:08.078Z,100918.00
2022-08-22T13:52:30.539Z,100918.56
2022-08-22T13:53:40.918Z,100914.31
2022-08-22T13:54:56.584Z,100913.81
2022-08-22T13:56:07.095Z,100911.66
2022-08-22T13:57:24.718Z,100907.41
2022-08-22T13:58:39.069Z,100904.78
2022-08-22T13:59:51.481Z,100907.03
2022-08-22T14:01:14.696Z,100902.16
2022-08-22T14:02:37.336Z,100918.56
2022-08-22T14:03:46.157Z,100910.13
2022-08-22T14:05:00.428Z,100910.13
2022-08-22T14:06:37.086Z,100899.78
2022-08-22T14:07:42.809Z,100899.06
2022-08-22T14:08:46.123Z,100906.16